Brooks, Kentucky
Current Conditions -  °F | °C
As of 12:56 AM on Wednesday 22 Oct 2014 (Local Time) from KSDF Reporting Station
Few Clouds Few Clouds  
Wind Chill: 51°   Ceiling: Unl
Heat Index: 51°   Visibility: 10mi
Dew Point: 42°   Wind: 6mph
Humidity: 71%   Direction: NA
Pressure: 30.17"   Gusts: NA
Location:  38.06°N, 85.71°W
Report Text: KSDF 220456Z VRB05KT 10SM FEW055 11/06 A3017 RMK AO2 SLP218 T01060056 401780089
Loading
Personal Weather Stations






























Interactive Weather Map New forecast layout! Learn more

10-Day Weather Forecast

Advertisements
Track Severe Weather on mobile